createdAt,value
2023-07-26T00:02:44.437Z,80.81
2023-07-26T00:08:06.027Z,81.32
2023-07-26T00:13:26.925Z,81.30
2023-07-26T00:18:47.775Z,81.35
2023-07-26T00:24:08.648Z,81.84
2023-07-26T00:29:29.672Z,81.25
2023-07-26T00:34:50.512Z,81.19
2023-07-26T00:40:11.824Z,81.27
2023-07-26T00:45:32.619Z,80.98
2023-07-26T00:50:53.646Z,80.90
2023-07-26T00:56:14.836Z,81.08
2023-07-26T01:01:36.097Z,81.29
2023-07-26T01:07:12.788Z,80.58
2023-07-26T01:12:40.409Z,80.98
2023-07-26T01:18:28.322Z,80.67
2023-07-26T01:23:49.705Z,80.69
2023-07-26T01:29:10.816Z,80.44
2023-07-26T01:34:31.716Z,80.15
2023-07-26T01:39:52.500Z,80.20
2023-07-26T01:45:13.687Z,80.37
2023-07-26T01:50:34.753Z,80.31
2023-07-26T01:55:55.861Z,80.30
2023-07-26T02:01:17.492Z,80.54
2023-07-26T02:06:38.815Z,80.75
2023-07-26T02:11:59.951Z,80.88
2023-07-26T02:17:20.791Z,80.88
2023-07-26T02:22:41.580Z,80.53
2023-07-26T02:28:03.430Z,80.58
2023-07-26T02:33:24.332Z,80.78
2023-07-26T02:38:44.970Z,80.58
2023-07-26T02:44:05.575Z,80.31
2023-07-26T02:49:27.257Z,80.21
2023-07-26T02:54:48.181Z,80.23
2023-07-26T03:00:09.699Z,80.24
2023-07-26T03:05:31.684Z,80.18
2023-07-26T03:10:52.881Z,80.07
2023-07-26T03:16:17.157Z,79.81
2023-07-26T03:21:37.956Z,80.51
2023-07-26T03:26:58.782Z,80.16
2023-07-26T03:32:19.631Z,80.29
2023-07-26T03:37:44.108Z,80.23
2023-07-26T03:43:04.996Z,79.86
2023-07-26T03:48:25.915Z,79.80
2023-07-26T03:53:46.636Z,79.54
2023-07-26T03:59:07.563Z,79.57
2023-07-26T04:04:28.285Z,79.62
2023-07-26T04:09:48.995Z,79.52
2023-07-26T04:15:10.225Z,79.07
2023-07-26T04:20:31.000Z,79.20
2023-07-26T04:25:52.153Z,78.80
2023-07-26T04:31:13.205Z,79.01
2023-07-26T04:36:34.311Z,78.65
2023-07-26T04:41:55.134Z,78.25
2023-07-26T04:47:16.618Z,78.25
2023-07-26T04:52:38.982Z,77.45
2023-07-26T04:57:59.556Z,77.14
2023-07-26T05:03:20.392Z,76.92
2023-07-26T05:08:41.107Z,75.58
2023-07-26T05:14:01.936Z,75.44
2023-07-26T05:19:22.608Z,74.70
2023-07-26T05:24:43.435Z,74.10
2023-07-26T05:30:04.360Z,73.46
2023-07-26T05:35:25.352Z,72.68
2023-07-26T05:40:45.951Z,71.37
2023-07-26T05:46:08.753Z,69.73
2023-07-26T05:51:29.433Z,69.09
2023-07-26T05:56:50.219Z,67.79
2023-07-26T06:02:11.122Z,65.48
2023-07-26T06:07:31.963Z,64.28
2023-07-26T06:12:52.915Z,63.97
2023-07-26T06:18:13.129Z,62.75
2023-07-26T06:23:33.805Z,63.25
2023-07-26T06:28:54.393Z,63.18
2023-07-26T06:34:15.207Z,63.51
2023-07-26T06:39:36.040Z,63.49
2023-07-26T06:44:56.801Z,64.22
2023-07-26T06:50:17.440Z,63.79
2023-07-26T06:55:38.805Z,63.76
2023-07-26T07:00:59.571Z,63.63
2023-07-26T07:06:20.200Z,63.48
2023-07-26T07:11:40.862Z,63.49
2023-07-26T07:17:01.896Z,63.54
2023-07-26T07:22:22.621Z,63.55
2023-07-26T07:27:43.236Z,63.70
2023-07-26T07:33:04.128Z,63.94
2023-07-26T07:38:24.979Z,63.90
2023-07-26T07:43:45.680Z,63.26
2023-07-26T07:49:06.387Z,63.05
2023-07-26T07:54:27.128Z,62.33
2023-07-26T07:59:47.976Z,61.93
2023-07-26T08:05:10.451Z,61.88
2023-07-26T08:10:31.077Z,61.14
2023-07-26T08:15:51.944Z,60.98
2023-07-26T08:21:13.098Z,59.94
2023-07-26T08:26:33.967Z,57.68
2023-07-26T08:31:54.555Z,55.98
2023-07-26T08:37:15.160Z,56.05
2023-07-26T08:42:35.885Z,55.02
2023-07-26T08:47:56.802Z,56.10
2023-07-26T08:53:17.855Z,57.70
2023-07-26T08:58:39.717Z,57.71
2023-07-26T09:04:00.636Z,58.04
2023-07-26T09:09:22.438Z,58.79
2023-07-26T09:14:43.284Z,58.52
2023-07-26T09:20:04.672Z,58.87
2023-07-26T09:25:35.814Z,58.45
2023-07-26T09:30:58.616Z,57.88
2023-07-26T09:36:19.520Z,54.00
2023-07-26T09:41:40.357Z,51.55
2023-07-26T09:47:00.930Z,49.46
2023-07-26T09:52:22.094Z,45.12
2023-07-26T09:57:42.669Z,41.42
2023-07-26T10:03:07.734Z,39.78
2023-07-26T10:08:28.881Z,37.69
2023-07-26T10:13:49.582Z,34.87
2023-07-26T10:19:10.172Z,35.25
2023-07-26T10:24:30.990Z,33.97
2023-07-26T10:29:51.718Z,33.34
2023-07-26T10:35:12.529Z,32.65
2023-07-26T10:40:36.831Z,31.47
2023-07-26T10:45:57.549Z,31.31
2023-07-26T10:51:32.946Z,30.82
2023-07-26T10:57:19.392Z,30.26
2023-07-26T11:02:46.068Z,30.01
2023-07-26T11:08:08.641Z,29.15
2023-07-26T11:13:33.964Z,29.62
2023-07-26T11:18:54.704Z,28.32
2023-07-26T11:24:15.394Z,27.94
2023-07-26T11:29:36.294Z,27.56
2023-07-26T11:34:57.643Z,27.15
2023-07-26T11:40:18.123Z,26.52
2023-07-26T11:45:39.277Z,26.36
2023-07-26T11:51:02.303Z,25.89
2023-07-26T11:56:31.765Z,26.28
2023-07-26T12:01:53.899Z,26.47
2023-07-26T12:07:14.953Z,26.42
2023-07-26T12:12:42.592Z,27.80
2023-07-26T12:18:04.297Z,28.83
2023-07-26T12:23:26.245Z,29.31
2023-07-26T12:28:47.069Z,29.16
2023-07-26T12:34:12.131Z,28.11
2023-07-26T12:39:32.887Z,27.33
2023-07-26T12:44:53.676Z,26.53
2023-07-26T12:50:14.503Z,25.64
2023-07-26T12:55:35.531Z,25.24
2023-07-26T13:00:56.727Z,25.96
2023-07-26T13:06:17.477Z,26.03
2023-07-26T13:11:38.334Z,26.56
2023-07-26T13:16:59.248Z,26.73
2023-07-26T13:22:19.881Z,27.63
2023-07-26T13:27:40.897Z,27.90
2023-07-26T13:33:01.909Z,27.80
2023-07-26T13:38:23.073Z,28.79
2023-07-26T13:43:45.255Z,28.80
2023-07-26T13:49:06.038Z,28.41
2023-07-26T13:54:26.565Z,28.33
2023-07-26T13:59:47.264Z,27.90
2023-07-26T14:05:08.305Z,27.68
2023-07-26T14:10:28.742Z,27.02
2023-07-26T14:15:49.558Z,27.40
2023-07-26T14:21:12.323Z,27.59
2023-07-26T14:26:33.206Z,28.56
2023-07-26T14:31:56.812Z,28.93
2023-07-26T14:37:19.067Z,29.05
2023-07-26T14:42:39.641Z,29.28
2023-07-26T14:48:00.375Z,29.17
2023-07-26T14:53:25.355Z,28.63
2023-07-26T14:58:45.919Z,28.82
2023-07-26T15:04:06.864Z,28.51
2023-07-26T15:09:27.366Z,28.34
2023-07-26T15:14:48.624Z,28.91
2023-07-26T15:20:09.858Z,29.32
2023-07-26T15:25:30.598Z,29.94
2023-07-26T15:30:51.497Z,30.47
2023-07-26T15:36:12.207Z,31.44
2023-07-26T15:41:47.527Z,31.94
2023-07-26T15:52:36.371Z,32.73
2023-07-26T15:57:57.018Z,32.68
2023-07-26T16:03:33.557Z,32.95
2023-07-26T16:09:27.934Z,32.82
2023-07-26T16:20:01.547Z,33.31
2023-07-26T16:25:22.482Z,33.58
2023-07-26T16:30:43.109Z,34.04
2023-07-26T16:36:04.104Z,34.40
2023-07-26T16:41:24.691Z,35.03
2023-07-26T16:52:09.158Z,35.96
2023-07-26T16:57:29.793Z,35.72
2023-07-26T17:02:50.553Z,35.84
2023-07-26T17:08:11.205Z,37.20
2023-07-26T17:13:32.857Z,37.85
2023-07-26T17:18:53.788Z,37.71
2023-07-26T17:24:14.747Z,38.23
2023-07-26T17:29:35.424Z,38.32
2023-07-26T17:34:56.065Z,38.34
2023-07-26T17:40:18.695Z,38.53
2023-07-26T17:45:39.669Z,38.42
2023-07-26T17:51:00.824Z,38.63
2023-07-26T17:56:21.489Z,38.77
2023-07-26T18:01:42.288Z,38.90
2023-07-26T18:07:02.760Z,39.52
2023-07-26T18:12:24.431Z,40.28
2023-07-26T18:17:45.200Z,40.75
2023-07-26T18:23:06.044Z,41.40
2023-07-26T18:28:26.694Z,41.81
2023-07-26T18:33:48.229Z,42.78
2023-07-26T18:39:09.198Z,43.00
2023-07-26T18:44:29.870Z,43.60
2023-07-26T18:49:50.532Z,44.22
2023-07-26T18:55:14.355Z,44.38
2023-07-26T19:00:35.265Z,44.71
2023-07-26T19:05:57.292Z,44.70
2023-07-26T19:11:17.815Z,45.44
2023-07-26T19:16:38.536Z,45.03
2023-07-26T19:21:59.205Z,45.64
2023-07-26T19:27:19.879Z,45.94
2023-07-26T19:32:40.568Z,46.19
2023-07-26T19:38:01.119Z,47.00
2023-07-26T19:43:21.862Z,47.14
2023-07-26T19:48:51.368Z,48.38
2023-07-26T19:54:12.268Z,48.63
2023-07-26T19:59:33.951Z,49.85
2023-07-26T20:04:54.918Z,49.85
2023-07-26T20:10:15.707Z,51.00
2023-07-26T20:15:36.523Z,51.63
2023-07-26T20:20:57.411Z,52.18
2023-07-26T20:26:18.214Z,53.15
2023-07-26T20:31:38.844Z,52.99
2023-07-26T20:36:59.709Z,53.87
2023-07-26T20:42:20.485Z,53.94
2023-07-26T20:47:41.408Z,54.42
2023-07-26T20:53:02.489Z,54.87
2023-07-26T20:58:23.397Z,55.44
2023-07-26T21:03:44.359Z,55.68
2023-07-26T21:09:05.604Z,55.63
2023-07-26T21:14:26.553Z,56.50
2023-07-26T21:19:47.294Z,56.38
2023-07-26T21:25:09.076Z,56.36
2023-07-26T21:30:29.824Z,56.53
2023-07-26T21:35:54.910Z,56.98
2023-07-26T21:41:15.450Z,57.30
2023-07-26T21:46:36.277Z,57.47
2023-07-26T21:51:57.370Z,57.63
2023-07-26T21:57:18.281Z,57.98
2023-07-26T22:02:39.720Z,58.36
2023-07-26T22:08:00.680Z,58.48
2023-07-26T22:13:21.453Z,58.86
2023-07-26T22:18:42.326Z,58.91
2023-07-26T22:24:03.132Z,59.52
2023-07-26T22:29:23.940Z,59.75
2023-07-26T22:34:44.689Z,59.90
2023-07-26T22:40:07.006Z,60.22
2023-07-26T22:45:28.029Z,60.16
2023-07-26T22:50:48.753Z,60.66
2023-07-26T22:56:09.619Z,61.10
2023-07-26T23:01:30.476Z,61.12
2023-07-26T23:06:51.204Z,61.80
2023-07-26T23:12:13.846Z,62.33
2023-07-26T23:17:35.421Z,62.35
2023-07-26T23:22:56.348Z,62.75
2023-07-26T23:28:17.335Z,63.21
2023-07-26T23:33:38.294Z,63.35
2023-07-26T23:38:59.331Z,63.57
2023-07-26T23:44:20.139Z,63.85
2023-07-26T23:49:40.897Z,64.27
2023-07-26T23:55:01.502Z,64.21
